Time;durP1;ratioP1;P1;durP2;ratioP2;P2;SDS_P1;SDS_P2;PMS_P1;PMS_P2;Temp;Humidity;BMP_temperature;BMP_pressure;BME280_temperature;BME280_humidity;BME280_pressure;Samples;Min_cycle;Max_cycle;Signal;HPM_P1;HPM_P2
2023/07/02 00:00:40;;;;;;;13.50;6.35;;;;;;;17.39;100.00;100570.00;5226568;28;20581;-67
2023/07/02 00:03:11;;;;;;;12.40;6.68;;;;;;;17.32;100.00;100577.06;5226574;28;20050;-67
2023/07/02 00:05:43;;;;;;;17.30;7.13;;;;;;;17.28;100.00;100562.25;5227683;28;20068;-67
2023/07/02 00:08:14;;;;;;;14.32;6.85;;;;;;;17.30;100.00;100565.63;5226958;28;20095;-67
2023/07/02 00:10:48;;;;;;;13.35;6.45;;;;;;;17.33;100.00;100573.34;5229802;28;20120;-67
2023/07/02 00:13:19;;;;;;;13.63;6.78;;;;;;;17.29;100.00;100565.78;5230410;28;20475;-67
2023/07/02 00:15:50;;;;;;;13.90;7.63;;;;;;;17.28;100.00;100562.25;5226900;28;20037;-67
2023/07/02 00:18:22;;;;;;;15.90;8.15;;;;;;;17.23;100.00;100576.22;5223857;28;20021;-67
2023/07/02 00:20:53;;;;;;;14.07;8.32;;;;;;;17.22;100.00;100568.28;5219560;28;20475;-67
2023/07/02 00:23:24;;;;;;;14.38;7.43;;;;;;;17.18;100.00;100575.91;5223064;28;20403;-67
2023/07/02 00:25:57;;;;;;;15.70;7.78;;;;;;;17.19;100.00;100574.03;5229485;28;20017;-67
2023/07/02 00:28:28;;;;;;;14.48;8.38;;;;;;;17.20;100.00;100571.19;5227650;28;20040;-68
2023/07/02 00:31:01;;;;;;;16.98;9.35;;;;;;;17.14;100.00;100560.19;5231240;28;20029;-69
2023/07/02 00:33:32;;;;;;;17.58;8.63;;;;;;;17.13;100.00;100570.16;5231492;28;20033;-68
2023/07/02 00:36:03;;;;;;;17.50;9.18;;;;;;;17.09;100.00;100552.63;5227117;28;20044;-67
2023/07/02 00:38:35;;;;;;;17.70;8.68;;;;;;;17.10;100.00;100561.56;5228433;28;20457;-67
2023/07/02 00:41:06;;;;;;;17.33;9.38;;;;;;;17.13;100.00;100550.44;5232104;28;20053;-67
2023/07/02 00:43:43;;;;;;;18.50;9.60;;;;;;;17.15;100.00;100551.94;5232316;28;20490;-67
2023/07/02 00:46:25;;;;;;;15.98;8.60;;;;;;;17.08;100.00;100553.63;5231772;28;20040;-68
2023/07/02 00:48:58;;;;;;;19.30;9.40;;;;;;;17.09;100.00;100552.63;5230805;28;20042;-68
2023/07/02 00:51:30;;;;;;;18.75;9.63;;;;;;;17.01;100.00;100566.94;5229571;28;20037;-67
2023/07/02 00:54:02;;;;;;;19.33;10.25;;;;;;;17.04;100.00;100565.75;5227669;28;20021;-67
2023/07/02 00:56:33;;;;;;;22.05;10.13;;;;;;;17.05;100.00;100576.38;5230899;28;20031;-67
2023/07/02 00:59:06;;;;;;;22.00;10.50;;;;;;;16.89;100.00;100578.19;5229326;28;20034;-67
2023/07/02 01:01:38;;;;;;;20.45;10.55;;;;;;;16.87;100.00;100581.03;5232338;28;20083;-67
2023/07/02 01:04:09;;;;;;;19.73;10.80;;;;;;;16.91;100.00;100582.41;5226866;28;20025;-67
2023/07/02 01:06:41;;;;;;;19.08;11.30;;;;;;;16.89;100.00;100591.66;5227864;28;20045;-67
2023/07/02 01:09:12;;;;;;;21.83;11.43;;;;;;;16.81;100.00;100590.59;5228846;28;20113;-67
2023/07/02 01:11:49;;;;;;;21.98;11.10;;;;;;;16.80;100.00;100588.94;5226164;28;20041;-67
2023/07/02 01:14:32;;;;;;;22.48;12.02;;;;;;;16.77;100.00;100586.56;5226168;28;20433;-67
2023/07/02 01:17:05;;;;;;;23.13;11.88;;;;;;;16.76;100.00;100584.00;5224481;28;20029;-67
2023/07/02 01:19:52;;;;;;;21.00;12.48;;;;;;;16.68;100.00;100595.59;5229158;28;20090;-67
2023/07/02 01:22:26;;;;;;;23.80;12.00;;;;;;;16.64;100.00;100597.81;5232542;28;20487;-67
2023/07/02 01:24:57;;;;;;;26.60;13.05;;;;;;;16.64;100.00;100596.94;5221080;28;20092;-67
2023/07/02 01:27:29;;;;;;;23.23;12.23;;;;;;;16.62;100.00;100597.09;5225551;28;21348;-67
2023/07/02 01:30:02;;;;;;;26.23;13.10;;;;;;;16.56;100.00;100596.94;5216409;28;20170;-67
2023/07/02 01:32:34;;;;;;;21.95;13.55;;;;;;;16.54;100.00;100602.47;5217998;28;20044;-67
2023/07/02 01:35:05;;;;;;;23.63;12.95;;;;;;;16.53;100.00;100598.09;5217228;28;20036;-68
2023/07/02 01:37:38;;;;;;;23.35;13.23;;;;;;;16.54;100.00;100610.53;5220756;28;20036;-67
2023/07/02 01:40:09;;;;;;;24.67;13.73;;;;;;;16.54;100.00;100605.16;5219231;28;20040;-67
2023/07/02 01:42:41;;;;;;;24.73;13.25;;;;;;;16.53;100.00;100608.88;5220856;28;20034;-67
2023/07/02 01:45:12;;;;;;;21.77;13.45;;;;;;;16.56;100.00;100608.53;5220156;28;20363;-67
2023/07/02 01:47:44;;;;;;;26.65;14.98;;;;;;;16.46;100.00;100605.97;5218371;28;20017;-67
2023/07/02 01:50:15;;;;;;;23.55;14.40;;;;;;;16.50;100.00;100609.19;5221647;28;20990;-67
2023/07/02 01:52:47;;;;;;;31.77;14.70;;;;;;;16.43;100.00;100610.84;5221414;28;20038;-67
2023/07/02 01:55:18;;;;;;;25.02;13.57;;;;;;;16.46;100.00;100608.66;5220623;28;20177;-67
2023/07/02 01:57:50;;;;;;;27.70;14.80;;;;;;;16.39;100.00;100606.78;5218746;28;20036;-67
2023/07/02 02:00:21;;;;;;;26.95;14.18;;;;;;;16.41;100.00;100611.00;5226467;28;20162;-67
2023/07/02 02:02:53;;;;;;;25.10;14.35;;;;;;;16.43;100.00;100613.53;5227121;28;20566;-67
2023/07/02 02:05:24;;;;;;;29.95;15.43;;;;;;;16.42;100.00;100614.56;5224797;28;20025;-67
2023/07/02 02:07:55;;;;;;;25.23;14.70;;;;;;;16.41;100.00;100616.38;5230044;28;20049;-67
2023/07/02 02:10:27;;;;;;;26.58;15.23;;;;;;;16.49;100.00;100620.94;5228544;28;20375;-67
2023/07/02 02:12:58;;;;;;;29.50;16.02;;;;;;;16.43;100.00;100617.09;5228452;28;20037;-67
2023/07/02 02:15:30;;;;;;;25.42;15.70;;;;;;;16.40;100.00;100620.09;5231026;28;20121;-67
2023/07/02 02:18:01;;;;;;;29.45;15.45;;;;;;;16.39;100.00;100622.94;5228644;28;20846;-67
2023/07/02 02:20:32;;;;;;;30.48;16.65;;;;;;;16.43;100.00;100618.91;5227516;28;20033;-67
2023/07/02 02:23:04;;;;;;;27.58;15.82;;;;;;;16.39;100.00;100620.25;5225519;28;20029;-67
2023/07/02 02:25:35;;;;;;;27.02;15.95;;;;;;;16.34;100.00;100619.88;5224090;28;20834;-67
2023/07/02 02:28:07;;;;;;;29.83;16.27;;;;;;;16.29;100.00;100623.06;5230287;28;20381;-67
2023/07/02 02:30:38;;;;;;;27.33;16.33;;;;;;;16.25;100.00;100625.22;5229321;28;20036;-67
2023/07/02 02:33:09;;;;;;;26.80;15.40;;;;;;;16.31;100.00;100629.13;5222298;28;20102;-67
2023/07/02 02:35:41;;;;;;;26.45;15.60;;;;;;;16.31;100.00;100622.91;5215983;28;20071;-67
2023/07/02 02:38:14;;;;;;;33.72;17.65;;;;;;;16.17;100.00;100627.03;5216979;28;20037;-67
2023/07/02 02:40:45;;;;;;;28.70;16.03;;;;;;;16.09;100.00;100627.84;5218592;28;20029;-67
2023/07/02 02:43:17;;;;;;;30.45;17.25;;;;;;;16.10;100.00;100629.50;5221206;28;20040;-67
2023/07/02 02:45:48;;;;;;;30.80;16.95;;;;;;;16.06;100.00;100630.84;5219041;28;20025;-67
2023/07/02 02:48:22;;;;;;;27.75;16.85;;;;;;;16.06;100.00;100638.91;5217394;28;20025;-67
2023/07/02 02:50:53;;;;;;;31.05;16.23;;;;;;;16.00;100.00;100642.25;5221519;28;20063;-67
2023/07/02 02:53:24;;;;;;;27.60;16.42;;;;;;;15.93;100.00;100638.47;5215822;28;20026;-67
2023/07/02 02:55:56;;;;;;;29.15;17.38;;;;;;;15.91;100.00;100645.88;5218372;28;20045;-67
2023/07/02 02:58:28;;;;;;;29.13;16.48;;;;;;;15.86;100.00;100644.50;5217865;28;20037;-67
2023/07/02 03:00:59;;;;;;;31.13;17.63;;;;;;;15.84;100.00;100643.81;5219699;28;20053;-67
2023/07/02 03:03:34;;;;;;;33.33;18.10;;;;;;;15.80;100.00;100647.81;5218145;28;20040;-67
2023/07/02 03:06:05;;;;;;;34.35;17.20;;;;;;;15.77;100.00;100658.03;5227297;28;20036;-67
2023/07/02 03:08:37;;;;;;;26.92;15.60;;;;;;;15.76;100.00;100664.41;5223158;28;20034;-67
2023/07/02 03:11:08;;;;;;;28.55;17.23;;;;;;;15.71;100.00;100670.22;5230711;28;20029;-67
2023/07/02 03:13:40;;;;;;;29.50;16.65;;;;;;;15.68;100.00;100668.69;5226045;28;20056;-67
2023/07/02 03:16:11;;;;;;;31.00;16.55;;;;;;;15.74;100.00;100671.78;5227808;28;20055;-67
2023/07/02 03:18:43;;;;;;;28.65;15.88;;;;;;;15.64;100.00;100678.06;5219132;28;20025;-67
2023/07/02 03:21:14;;;;;;;30.58;16.60;;;;;;;15.65;100.00;100676.25;5220895;28;20037;-67
2023/07/02 03:23:45;;;;;;;30.67;17.20;;;;;;;15.57;100.00;100674.31;5233200;28;20026;-67
2023/07/02 03:26:17;;;;;;;29.90;17.48;;;;;;;15.72;100.00;100682.66;5224665;28;20029;-67
2023/07/02 03:28:48;;;;;;;33.50;16.50;;;;;;;15.67;100.00;100680.47;5227862;28;20106;-67
2023/07/02 03:31:19;;;;;;;32.13;15.90;;;;;;;15.65;100.00;100681.63;5226381;28;20038;-67
2023/07/02 03:33:51;;;;;;;29.50;16.75;;;;;;;15.58;100.00;100683.22;5221760;28;20418;-67
2023/07/02 03:36:23;;;;;;;26.90;15.55;;;;;;;15.56;100.00;100686.06;5231058;28;20033;-67
2023/07/02 03:38:54;;;;;;;28.20;15.95;;;;;;;15.59;100.00;100693.84;5227250;28;20032;-67
2023/07/02 03:41:25;;;;;;;27.05;14.75;;;;;;;15.61;100.00;100691.84;5226058;28;20026;-67
2023/07/02 03:43:57;;;;;;;26.15;15.27;;;;;;;15.56;100.00;100687.91;5222741;28;20029;-67
2023/07/02 03:46:28;;;;;;;27.10;15.20;;;;;;;15.58;100.00;100692.13;5224603;28;20025;-67
2023/07/02 03:48:59;;;;;;;33.15;16.60;;;;;;;15.49;100.00;100688.53;5222386;28;20093;-67
2023/07/02 03:51:31;;;;;;;28.10;15.07;;;;;;;15.40;100.00;100694.00;5237453;28;20055;-67
2023/07/02 03:54:03;;;;;;;25.58;14.10;;;;;;;15.49;100.00;100684.97;5220806;28;20053;-67
2023/07/02 03:56:34;;;;;;;26.17;13.80;;;;;;;15.43;100.00;100699.03;5221351;28;20396;-67
2023/07/02 03:59:06;;;;;;;28.17;14.52;;;;;;;15.54;100.00;100695.28;5221412;28;20866;-67
2023/07/02 04:01:37;;;;;;;24.40;13.70;;;;;;;15.40;100.00;100697.50;5238372;28;20488;-67
2023/07/02 04:04:09;;;;;;;26.13;13.07;;;;;;;15.40;100.00;100696.69;5235819;28;20095;-67
2023/07/02 04:06:42;;;;;;;26.42;13.50;;;;;;;15.46;100.00;100704.97;5234356;28;20570;-67
2023/07/02 04:09:14;;;;;;;24.88;13.35;;;;;;;15.45;100.00;100700.56;5234070;28;20052;-68
2023/07/02 04:11:46;;;;;;;24.05;13.23;;;;;;;15.43;100.00;100707.09;5231134;28;20389;-67
2023/07/02 04:14:17;;;;;;;25.77;13.05;;;;;;;15.35;100.00;100701.66;5235468;28;20040;-67
2023/07/02 04:16:48;;;;;;;24.50;13.02;;;;;;;15.33;100.00;100709.88;5231150;28;20029;-67
2023/07/02 04:19:20;;;;;;;24.83;12.57;;;;;;;15.32;100.00;100699.25;5234229;28;20068;-67
2023/07/02 04:21:51;;;;;;;25.45;13.25;;;;;;;15.29;100.00;100701.25;5237212;28;20037;-67
2023/07/02 04:24:23;;;;;;;27.50;13.90;;;;;;;15.27;100.00;100705.09;5230763;28;20167;-67
2023/07/02 04:26:54;;;;;;;25.80;13.40;;;;;;;15.33;100.00;100709.03;5227700;28;20092;-67
2023/07/02 04:29:26;;;;;;;24.48;13.50;;;;;;;15.19;100.00;100718.47;5229202;28;20052;-67
2023/07/02 04:31:57;;;;;;;26.10;13.50;;;;;;;15.36;100.00;100714.09;5222273;28;20108;-67
2023/07/02 04:34:28;;;;;;;26.60;14.20;;;;;;;15.35;100.00;100717.78;5226566;28;20438;-67
2023/07/02 04:37:00;;;;;;;24.42;13.35;;;;;;;15.32;100.00;100713.53;5230924;28;20030;-67
2023/07/02 04:39:31;;;;;;;23.08;12.57;;;;;;;15.37;100.00;100721.16;5228529;28;20032;-67
2023/07/02 04:42:03;;;;;;;26.58;13.35;;;;;;;15.37;100.00;100715.78;5227701;28;20671;-67
2023/07/02 04:44:34;;;;;;;23.05;12.02;;;;;;;15.46;100.00;100713.03;5233115;28;20025;-67
2023/07/02 04:47:06;;;;;;;23.95;13.35;;;;;;;15.43;100.00;100726.75;5233050;28;20419;-67
2023/07/02 04:49:38;;;;;;;29.27;12.60;;;;;;;15.44;100.00;100717.72;5228643;28;20020;-67
2023/07/02 04:52:09;;;;;;;20.35;11.88;;;;;;;15.44;100.00;100728.47;5231264;28;20034;-67
2023/07/02 04:54:41;;;;;;;25.85;12.73;;;;;;;15.46;100.00;100726.47;5228766;28;20024;-68
2023/07/02 04:57:15;;;;;;;23.83;12.80;;;;;;;15.46;100.00;100731.84;5229184;28;20038;-67
2023/07/02 04:59:47;;;;;;;23.50;12.93;;;;;;;15.58;100.00;100731.63;5225399;28;20020;-66
2023/07/02 05:02:19;;;;;;;21.25;12.70;;;;;;;15.59;100.00;100736.00;5220755;28;20029;-67
2023/07/02 05:04:50;;;;;;;23.13;11.60;;;;;;;15.59;100.00;100733.31;5217714;28;20064;-67
2023/07/02 05:07:21;;;;;;;25.50;13.18;;;;;;;15.63;100.00;100732.03;5217238;28;20513;-67
2023/07/02 05:09:53;;;;;;;26.92;11.07;;;;;;;15.68;100.00;100727.00;5220578;28;20590;-67
2023/07/02 05:12:24;;;;;;;24.13;12.73;;;;;;;15.78;100.00;100730.53;5229036;28;20029;-67
2023/07/02 05:14:56;;;;;;;19.50;10.75;;;;;;;15.78;100.00;100735.91;5221972;28;20041;-67
2023/07/02 05:17:27;;;;;;;22.48;10.98;;;;;;;15.72;100.00;100738.31;5223900;28;20148;-67
2023/07/02 05:19:59;;;;;;;22.00;10.43;;;;;;;15.76;100.00;100737.03;5223118;28;20557;-67
2023/07/02 05:22:30;;;;;;;22.90;10.25;;;;;;;15.76;100.00;100743.28;5224061;28;20033;-67
2023/07/02 05:25:02;;;;;;;20.48;9.57;;;;;;;15.83;100.00;100749.72;5226785;28;20472;-67
2023/07/02 05:27:34;;;;;;;21.42;9.10;;;;;;;15.79;100.00;100751.03;5232629;28;20025;-67
2023/07/02 05:30:06;;;;;;;20.92;9.45;;;;;;;15.80;100.00;100749.19;5231756;28;20036;-67
2023/07/02 05:32:39;;;;;;;21.85;8.90;;;;;;;15.87;100.00;100751.09;5218021;28;20037;-67
2023/07/02 05:35:10;;;;;;;16.67;8.38;;;;;;;15.95;100.00;100752.19;5222657;28;20037;-67
2023/07/02 05:37:42;;;;;;;16.08;9.00;;;;;;;16.00;100.00;100760.66;5224384;28;20068;-67
2023/07/02 05:40:13;;;;;;;18.35;8.30;;;;;;;15.98;100.00;100758.09;5221617;28;20057;-67
2023/07/02 05:42:45;;;;;;;19.58;9.00;;;;;;;16.05;100.00;100764.56;5219198;28;20052;-67
2023/07/02 05:45:16;;;;;;;19.50;8.93;;;;;;;16.13;100.00;100769.16;5225164;28;20479;-67
2023/07/02 05:47:47;;;;;;;18.52;8.70;;;;;;;16.17;100.00;100761.63;5222718;28;20720;-67
2023/07/02 05:50:19;;;;;;;20.25;8.23;;;;;;;16.31;100.00;100773.69;5224146;28;20034;-67
2023/07/02 05:52:50;;;;;;;18.45;8.27;;;;;;;16.33;100.00;100780.59;5224143;28;20104;-67
2023/07/02 05:55:22;;;;;;;16.23;7.68;;;;;;;16.26;100.00;100772.31;5223775;28;20028;-67
2023/07/02 05:57:53;;;;;;;16.42;7.82;;;;;;;16.31;100.00;100776.38;5228389;28;20033;-67
2023/07/02 06:00:25;;;;;;;18.85;7.63;;;;;;;16.38;100.00;100775.59;5220725;28;20034;-68
2023/07/02 06:02:56;;;;;;;17.58;7.85;;;;;;;16.42;100.00;100784.19;5218300;28;20037;-67
2023/07/02 06:05:27;;;;;;;17.17;8.10;;;;;;;16.63;100.00;100781.97;5224671;28;20068;-67
2023/07/02 06:07:59;;;;;;;17.73;7.35;;;;;;;16.78;100.00;100782.25;5225238;28;20473;-67
2023/07/02 06:10:30;;;;;;;18.90;7.90;;;;;;;16.73;100.00;100786.44;5228175;28;20059;-67
2023/07/02 06:13:01;;;;;;;19.83;7.38;;;;;;;16.72;100.00;100793.66;5234659;28;20033;-67
2023/07/02 06:15:33;;;;;;;15.13;7.30;;;;;;;16.78;100.00;100792.16;5227737;28;20098;-67
2023/07/02 06:18:04;;;;;;;20.08;8.25;;;;;;;16.89;100.00;100786.53;5216089;28;20041;-67
2023/07/02 06:20:36;;;;;;;19.13;7.15;;;;;;;16.93;100.00;100778.97;5221570;28;20086;-67
2023/07/02 06:23:07;;;;;;;18.45;7.32;;;;;;;16.98;100.00;100790.13;5219199;28;20029;-68
2023/07/02 06:25:38;;;;;;;16.10;7.30;;;;;;;17.04;100.00;100793.00;5225469;28;20033;-68
2023/07/02 06:28:10;;;;;;;18.65;6.60;;;;;;;17.03;100.00;100787.81;5218403;28;20030;-68
2023/07/02 06:30:45;;;;;;;15.18;6.85;;;;;;;17.15;100.00;100799.16;5220694;28;20033;-67
2023/07/02 06:33:16;;;;;;;17.63;7.07;;;;;;;17.28;100.00;100799.53;5226311;28;20098;-67
2023/07/02 06:35:49;;;;;;;15.50;6.55;;;;;;;17.34;100.00;100812.38;5224831;28;20037;-67
2023/07/02 06:38:20;;;;;;;16.42;6.80;;;;;;;17.37;100.00;100809.38;5218924;28;20021;-67
2023/07/02 06:40:51;;;;;;;17.30;6.70;;;;;;;17.46;100.00;100804.00;5222923;28;20025;-68
2023/07/02 06:43:23;;;;;;;21.00;6.85;;;;;;;17.50;100.00;100808.88;5226458;28;20025;-67
2023/07/02 06:45:54;;;;;;;19.42;6.97;;;;;;;17.55;100.00;100811.94;5224328;28;20032;-67
2023/07/02 06:48:26;;;;;;;17.40;6.65;;;;;;;17.53;100.00;100813.97;5228808;28;20424;-67
2023/07/02 06:50:57;;;;;;;18.17;7.00;;;;;;;17.65;100.00;100819.91;5227264;28;20029;-67
2023/07/02 06:53:29;;;;;;;16.13;6.90;;;;;;;17.68;100.00;100816.00;5231934;28;20024;-67
2023/07/02 06:56:00;;;;;;;12.63;6.38;;;;;;;17.62;100.00;100815.69;5225867;28;20026;-67
2023/07/02 06:58:32;;;;;;;14.77;6.63;;;;;;;17.71;100.00;100826.50;5234225;28;20025;-67
2023/07/02 07:01:03;;;;;;;16.45;7.05;;;;;;;17.85;100.00;100822.34;5231231;28;20107;-68
2023/07/02 07:03:35;;;;;;;17.67;6.75;;;;;;;17.83;100.00;100826.03;5230223;28;20033;-68
2023/07/02 07:06:07;;;;;;;18.00;6.85;;;;;;;17.90;100.00;100828.09;5235570;28;20045;-68
2023/07/02 07:08:41;;;;;;;17.92;6.88;;;;;;;17.97;100.00;100834.53;5225218;28;20028;-68
2023/07/02 07:11:13;;;;;;;19.17;7.18;;;;;;;17.88;100.00;100835.50;5223597;28;20060;-68
2023/07/02 07:13:44;;;;;;;13.57;6.35;;;;;;;18.04;100.00;100840.91;5219455;28;20052;-69
2023/07/02 07:16:16;;;;;;;13.45;6.50;;;;;;;18.06;100.00;100849.69;5229365;28;20593;-68
2023/07/02 07:18:47;;;;;;;12.80;6.03;;;;;;;18.12;100.00;100851.75;5226547;28;20097;-68
2023/07/02 07:21:19;;;;;;;16.23;5.57;;;;;;;18.20;100.00;100849.06;5224640;28;20443;-67
2023/07/02 07:23:50;;;;;;;14.50;5.82;;;;;;;18.16;100.00;100853.09;5225608;28;20025;-67
2023/07/02 07:26:22;;;;;;;17.05;6.18;;;;;;;18.25;100.00;100853.94;5227341;28;20442;-68
2023/07/02 07:28:55;;;;;;;12.73;5.40;;;;;;;18.28;100.00;100869.00;5224878;28;20096;-68
2023/07/02 07:31:27;;;;;;;13.43;5.63;;;;;;;18.27;100.00;100857.31;5230309;28;20088;-68
2023/07/02 07:33:58;;;;;;;12.88;6.18;;;;;;;18.36;100.00;100860.88;5223127;28;20415;-68
2023/07/02 07:36:30;;;;;;;11.90;5.40;;;;;;;18.34;100.00;100868.31;5230974;28;20028;-68
2023/07/02 07:39:01;;;;;;;9.90;5.38;;;;;;;18.41;100.00;100866.63;5226054;28;20034;-68
2023/07/02 07:41:32;;;;;;;14.13;5.80;;;;;;;18.49;100.00;100880.13;5228525;28;20028;-68
2023/07/02 07:44:04;;;;;;;12.38;5.40;;;;;;;18.50;100.00;100872.88;5222925;28;20034;-67
2023/07/02 07:46:35;;;;;;;13.80;5.70;;;;;;;18.45;100.00;100876.09;5219084;28;20025;-68
2023/07/02 07:49:07;;;;;;;12.23;6.00;;;;;;;18.52;100.00;100885.19;5227580;28;20118;-68
2023/07/02 07:51:38;;;;;;;11.73;5.68;;;;;;;18.54;100.00;100887.72;5223581;28;20037;-68
2023/07/02 07:54:10;;;;;;;10.80;4.70;;;;;;;18.56;100.00;100883.88;5225837;28;20498;-68
2023/07/02 07:56:42;;;;;;;12.35;5.70;;;;;;;18.55;100.00;100881.31;5225905;28;20061;-68
2023/07/02 07:59:14;;;;;;;16.00;5.85;;;;;;;18.68;100.00;100889.78;5224352;28;20021;-68
2023/07/02 08:01:46;;;;;;;13.48;5.55;;;;;;;18.68;100.00;100880.78;5221467;28;20025;-68
2023/07/02 08:04:17;;;;;;;14.30;5.47;;;;;;;18.68;100.00;100884.38;5219044;28;20431;-68
2023/07/02 08:06:49;;;;;;;12.25;5.75;;;;;;;18.78;100.00;100890.44;5219164;28;20204;-67
2023/07/02 08:09:21;;;;;;;14.48;5.45;;;;;;;18.78;100.00;100887.72;5214456;28;20038;-68
2023/07/02 08:11:52;;;;;;;10.68;5.47;;;;;;;18.93;100.00;100887.91;5218875;28;20060;-68
2023/07/02 08:14:23;;;;;;;13.27;5.20;;;;;;;18.97;100.00;100877.59;5220580;28;20029;-68
2023/07/02 08:16:55;;;;;;;14.15;5.00;;;;;;;19.00;100.00;100882.66;5226351;28;20492;-68
2023/07/02 08:19:26;;;;;;;12.27;5.22;;;;;;;18.99;100.00;100887.22;5223889;28;20029;-68
2023/07/02 08:21:58;;;;;;;10.65;5.15;;;;;;;18.90;100.00;100890.13;5223246;28;20079;-68
2023/07/02 08:24:31;;;;;;;12.57;6.30;;;;;;;18.91;100.00;100899.94;5225491;28;20884;-68
2023/07/02 08:27:02;;;;;;;12.77;5.50;;;;;;;19.00;100.00;100899.75;5228996;28;20028;-69
2023/07/02 08:29:34;;;;;;;12.23;5.20;;;;;;;18.98;100.00;100899.06;5222315;28;20434;-68
2023/07/02 08:32:05;;;;;;;11.43;5.07;;;;;;;18.99;100.00;100908.88;5224767;28;20043;-68
2023/07/02 08:34:37;;;;;;;12.40;5.53;;;;;;;19.05;100.00;100906.50;5223092;28;20432;-68
2023/07/02 08:37:08;;;;;;;12.85;5.20;;;;;;;19.26;100.00;100904.09;5221377;28;20021;-68
2023/07/02 08:39:40;;;;;;;10.52;5.20;;;;;;;19.38;100.00;100912.66;5223281;28;20025;-68
2023/07/02 08:42:11;;;;;;;15.05;5.72;;;;;;;19.37;100.00;100911.00;5228704;28;20053;-69
2023/07/02 08:44:47;;;;;;;11.25;4.72;;;;;;;19.49;100.00;100908.75;5230569;28;20047;-68
2023/07/02 08:47:18;;;;;;;11.10;5.18;;;;;;;19.49;100.00;100901.47;5225568;28;20119;-68
2023/07/02 08:49:50;;;;;;;12.68;4.90;;;;;;;19.47;100.00;100905.38;5229263;28;20112;-69
2023/07/02 08:52:22;;;;;;;10.15;4.78;;;;;;;19.40;100.00;100910.63;5222556;28;20108;-69
2023/07/02 08:54:53;;;;;;;9.18;4.65;;;;;;;19.27;100.00;100913.03;5225284;28;20460;-68
2023/07/02 08:57:25;;;;;;;9.88;4.55;;;;;;;19.17;100.00;100907.81;5224803;28;20041;-68
2023/07/02 08:59:56;;;;;;;13.05;5.38;;;;;;;19.22;100.00;100916.25;5235410;28;20422;-69
2023/07/02 09:02:34;;;;;;;11.23;4.70;;;;;;;19.32;100.00;100916.91;5230666;28;20112;-68
2023/07/02 09:05:05;;;;;;;9.30;4.68;;;;;;;19.37;100.00;100906.41;5230946;28;20400;-68
2023/07/02 09:07:44;;;;;;;11.63;5.60;;;;;;;19.41;100.00;100901.50;5226023;28;20053;-68
2023/07/02 09:10:30;;;;;;;10.57;4.65;;;;;;;19.41;100.00;100912.34;5232040;28;20575;-68
2023/07/02 09:13:09;;;;;;;10.95;4.45;;;;;;;19.28;100.00;100907.44;5227378;28;20025;-69
2023/07/02 09:15:41;;;;;;;10.38;4.65;;;;;;;19.27;100.00;100910.31;5232484;28;20032;-68
2023/07/02 09:18:24;;;;;;;10.20;4.68;;;;;;;19.28;100.00;100895.81;5238596;28;20029;-68
2023/07/02 09:20:56;;;;;;;9.23;4.55;;;;;;;19.18;100.00;100912.22;5221917;28;20108;-69
2023/07/02 09:23:37;;;;;;;13.70;5.40;;;;;;;19.35;100.00;100915.75;5230314;28;20033;-68
2023/07/02 09:26:19;;;;;;;11.68;5.43;;;;;;;19.42;100.00;100907.75;5220229;28;20092;-68
2023/07/02 09:29:01;;;;;;;11.20;4.88;;;;;;;19.52;100.00;100914.66;5225310;28;20029;-68
2023/07/02 09:31:43;;;;;;;9.82;5.05;;;;;;;19.46;100.00;100901.81;5216253;28;20033;-68
2023/07/02 09:34:15;;;;;;;10.90;4.93;;;;;;;19.55;100.00;100908.06;5231196;28;20027;-69
2023/07/02 09:36:46;;;;;;;11.75;4.75;;;;;;;19.54;100.00;100915.34;5226683;28;20459;-67
2023/07/02 09:39:21;;;;;;;12.63;5.22;;;;;;;19.46;100.00;100903.69;5233125;28;20029;-69
2023/07/02 09:41:59;;;;;;;9.07;4.65;;;;;;;19.40;100.00;100907.94;5237956;28;20053;-69
2023/07/02 09:44:32;;;;;;;11.20;5.55;;;;;;;19.59;100.00;100904.81;5233013;28;20440;-68
2023/07/02 09:47:06;;;;;;;10.43;5.10;;;;;;;19.54;100.00;100906.34;5222075;28;20088;-69
2023/07/02 09:49:38;;;;;;;;;;;;;;;19.63;100.00;100905.31;5251424;28;20431;-69
2023/07/02 09:52:11;;;;;;;13.43;5.85;;;;;;;19.57;100.00;100908.72;5236130;28;19913;-69
2023/07/02 09:54:42;;;;;;;11.85;5.45;;;;;;;19.64;100.00;100908.88;5222830;28;20021;-69
2023/07/02 09:57:14;;;;;;;10.57;4.72;;;;;;;19.64;100.00;100904.31;5248372;28;20506;-69
2023/07/02 09:59:46;;;;;;;11.35;5.30;;;;;;;19.57;100.00;100912.25;5238436;28;20108;-69
2023/07/02 10:02:17;;;;;;;11.52;4.88;;;;;;;19.66;100.00;100910.38;5236212;28;20040;-69
2023/07/02 10:04:54;;;;;;;11.52;4.95;;;;;;;19.80;100.00;100922.34;5236688;28;20024;-68
2023/07/02 10:07:28;;;;;;;12.23;5.43;;;;;;;19.82;100.00;100923.03;5219025;28;20057;-68
2023/07/02 10:10:00;;;;;;;10.05;4.95;;;;;;;19.87;100.00;100925.22;5231749;28;20380;-68
2023/07/02 10:12:31;;;;;;;13.07;5.25;;;;;;;19.94;100.00;100926.19;5224080;28;20037;-68
2023/07/02 10:15:03;;;;;;;15.90;5.68;;;;;;;20.11;100.00;100927.78;5232806;28;20018;-69
2023/07/02 10:17:36;;;;;;;11.40;5.32;;;;;;;20.17;100.00;100934.34;5231219;28;20080;-69
2023/07/02 10:20:08;;;;;;;12.50;5.43;;;;;;;20.05;100.00;100930.38;5221822;28;20028;-69
2023/07/02 10:22:57;;;;;;;12.35;5.60;;;;;;;20.01;100.00;100935.28;5232173;28;20036;-69
2023/07/02 10:25:29;;;;;;;10.48;5.10;;;;;;;19.96;100.00;100926.84;5230588;28;20100;-69
2023/07/02 10:28:02;;;;;;;12.07;5.35;;;;;;;19.87;100.00;100928.75;5238233;28;20068;-68
2023/07/02 10:30:36;;;;;;;11.63;5.68;;;;;;;19.89;100.00;100931.31;5244560;28;20036;-69
2023/07/02 10:33:12;;;;;;;12.20;5.38;;;;;;;19.99;100.00;100934.63;5234219;28;20041;-69
2023/07/02 10:35:48;;;;;;;12.65;5.35;;;;;;;20.06;100.00;100932.91;5231691;28;20480;-69
2023/07/02 10:38:22;;;;;;;12.88;5.63;;;;;;;20.09;100.00;100931.69;5240619;28;20390;-69
2023/07/02 10:40:58;;;;;;;13.10;6.37;;;;;;;20.02;100.00;100936.13;5239719;28;20065;-68
2023/07/02 10:43:31;;;;;;;14.15;6.50;;;;;;;19.85;100.00;100943.47;5235831;28;20045;-69
2023/07/02 10:46:04;;;;;;;12.00;5.67;;;;;;;19.83;100.00;100940.09;5245393;28;20099;-69
2023/07/02 10:48:36;;;;;;;12.27;6.05;;;;;;;19.90;100.00;100943.81;5238958;28;20037;-69
2023/07/02 10:51:13;;;;;;;12.32;6.20;;;;;;;19.89;100.00;100953.81;5228728;28;20270;-69
2023/07/02 10:53:44;;;;;;;15.43;6.95;;;;;;;19.98;100.00;100951.88;5219363;28;20491;-69
2023/07/02 10:56:17;;;;;;;14.77;6.00;;;;;;;20.05;100.00;100950.16;5228625;28;20112;-68
2023/07/02 10:58:51;;;;;;;12.90;5.90;;;;;;;20.15;100.00;100941.81;5218623;28;20033;-69
2023/07/02 11:01:27;;;;;;;15.85;6.90;;;;;;;20.35;100.00;100939.50;5232733;28;20052;-69
2023/07/02 11:04:04;;;;;;;14.43;6.50;;;;;;;20.32;100.00;100942.56;5229776;28;20037;-69
2023/07/02 11:06:36;;;;;;;12.20;6.45;;;;;;;20.38;100.00;100939.13;5220169;28;20046;-69
2023/07/02 11:09:17;;;;;;;16.42;7.03;;;;;;;20.52;100.00;100935.66;5221909;28;20353;-69
2023/07/02 11:11:53;;;;;;;16.40;7.20;;;;;;;20.55;100.00;100943.41;5222852;28;20060;-69
2023/07/02 11:14:31;;;;;;;16.50;7.03;;;;;;;20.45;100.00;100947.41;5227138;28;20037;-69
2023/07/02 11:17:05;;;;;;;16.75;8.13;;;;;;;20.36;100.00;100957.44;5236352;28;20041;-69
2023/07/02 11:19:37;;;;;;;15.65;7.15;;;;;;;20.22;100.00;100952.81;5232674;28;20398;-68
2023/07/02 11:22:08;;;;;;;16.08;7.35;;;;;;;20.07;100.00;100952.69;5227635;28;20037;-68
2023/07/02 11:24:39;;;;;;;14.43;7.25;;;;;;;19.98;100.00;100955.47;5231965;28;20776;-69
2023/07/02 11:27:21;;;;;;;14.73;7.38;;;;;;;19.87;100.00;100957.72;5226238;28;20033;-72
2023/07/02 11:29:59;;;;;;;15.43;7.03;;;;;;;19.76;100.00;100958.94;5230832;28;20379;-69